Cincinnati, Ohio
Traffic Map
Current Weather Conditions
Cincinnati, Ohio
Clear
Clear
27°
Feels Like: 29°
Wind Chill: 27° Ceiling: Unl
Heat Index: 29° Visibility: 10mi
Dew Point: 20° Wind: 15mph
Humidity: 65% Direction: 210° (SSW)
Pressure: 29.87in Gusts: 0mph
Raw Report DataKLUK 031653Z 21013KT 10SM CLR 27/20 A2987 RMK AO2 SLP113 T02720200
Traffic Incident Summary
Active as of:
Severity:
Category:
InformationThere was an issue retrieving the traffic information for this location. Please try a different location or try again shortly.
Advertisements
Track Severe Weather on mobile